Time;durP1;ratioP1;P1;durP2;ratioP2;P2;SDS_P1;SDS_P2;PMS_P1;PMS_P2;Temp;Humidity;BMP_temperature;BMP_pressure;BME280_temperature;BME280_humidity;BME280_pressure;Samples;Min_cycle;Max_cycle;Signal;HPM_P1;HPM_P2
2023/04/16 00:02:14;;;;;;;0.63;0.63;;;8.40;1.00;;;;;;5109627;27;20454;-77
2023/04/16 00:04:41;;;;;;;1.05;1.00;;;8.40;17.00;;;;;;5112795;27;20426;-75
2023/04/16 00:07:22;;;;;;;0.65;0.65;;;8.40;19.30;;;;;;5060949;28;20428;-77
2023/04/16 00:09:49;;;;;;;0.70;0.70;;;8.40;99.90;;;;;;5075727;28;20435;-75
2023/04/16 00:12:16;;;;;;;0.57;0.57;;;8.40;19.30;;;;;;5069766;28;20540;-77
2023/04/16 00:14:44;;;;;;;0.82;0.82;;;8.30;99.90;;;;;;5041775;28;21021;-74
2023/04/16 00:17:13;;;;;;;0.60;0.60;;;8.40;99.90;;;;;;5066139;28;20428;-74
2023/04/16 00:19:40;;;;;;;0.52;0.52;;;8.40;99.90;;;;;;5055000;28;20435;-74
2023/04/16 00:22:07;;;;;;;0.85;0.85;;;8.40;99.90;;;;;;5057129;28;20437;-74
2023/04/16 00:24:34;;;;;;;1.30;0.82;;;8.40;99.90;;;;;;5061762;28;20521;-74
2023/04/16 00:27:01;;;;;;;2.30;0.60;;;8.30;99.90;;;;;;5061629;28;20425;-74
2023/04/16 00:29:29;;;;;;;0.98;0.93;;;8.30;99.90;;;;;;5067899;28;20432;-74
2023/04/16 00:31:56;;;;;;;0.68;0.68;;;8.40;99.90;;;;;;5054714;28;20990;-73
2023/04/16 00:34:23;;;;;;;0.60;0.50;;;8.40;99.90;;;;;;5078755;28;20809;-74
2023/04/16 00:36:50;;;;;;;0.65;0.65;;;8.30;99.90;;;;;;5072245;28;20479;-73
2023/04/16 00:39:17;;;;;;;0.60;0.60;;;8.40;99.90;;;;;;5065889;28;20940;-73
2023/04/16 00:41:44;;;;;;;0.50;0.47;;;8.30;99.90;;;;;;5069150;28;20514;-74
2023/04/16 00:44:10;;;;;;;0.80;0.80;;;8.40;99.90;;;;;;5074576;27;20430;-74
2023/04/16 00:46:44;;;;;;;0.30;0.30;;;8.30;99.90;;;;;;5111632;27;20418;-74
2023/04/16 00:49:11;;;;;;;0.82;0.82;;;8.30;99.90;;;;;;5106942;27;20559;-74
2023/04/16 00:51:43;;;;;;;1.17;0.95;;;8.30;99.90;;;;;;5112060;27;20520;-74
2023/04/16 00:54:10;;;;;;;0.47;0.47;;;8.30;99.90;;;;;;5114316;27;20420;-75
2023/04/16 00:56:38;;;;;;;0.60;0.52;;;8.30;99.90;;;;;;5117907;27;20426;-74
2023/04/16 00:59:05;;;;;;;0.50;0.50;;;8.30;99.90;;;;;;5108475;27;20441;-74
2023/04/16 01:01:32;;;;;;;0.70;0.70;;;8.30;99.90;;;;;;5118128;27;21006;-74
2023/04/16 01:03:59;;;;;;;1.10;1.00;;;8.30;1.00;;;;;;5101495;27;20469;-74
2023/04/16 01:06:26;;;;;;;0.98;0.98;;;8.30;1.00;;;;;;5116321;27;20431;-74
2023/04/16 01:08:53;;;;;;;1.70;0.90;;;8.30;1.00;;;;;;5111957;27;20506;-74
2023/04/16 01:11:20;;;;;;;1.60;0.82;;;8.30;99.90;;;;;;5111647;27;20439;-74
2023/04/16 01:13:47;;;;;;;1.15;1.05;;;8.30;99.90;;;;;;5112812;27;20423;-74
2023/04/16 01:16:13;;;;;;;0.97;0.77;;;8.30;99.90;;;;;;5118715;27;20426;-74
2023/04/16 01:18:43;;;;;;;0.75;0.73;;;8.30;99.90;;;;;;5103026;27;20437;-74
2023/04/16 01:21:10;;;;;;;0.88;0.85;;;8.30;99.90;;;;;;5100235;28;20471;-74
2023/04/16 01:23:37;;;;;;;0.80;0.73;;;8.30;1.00;;;;;;5119385;27;20438;-74
2023/04/16 01:26:03;;;;;;;1.40;1.27;;;8.30;1.00;;;;;;5101784;27;20433;-74
2023/04/16 01:28:30;;;;;;;0.80;0.80;;;8.20;1.00;;;;;;5113383;27;20485;-74
2023/04/16 01:30:57;;;;;;;1.70;0.90;;;8.20;1.00;;;;;;5093088;27;20471;-74
2023/04/16 01:33:27;;;;;;;0.70;0.70;;;8.20;1.00;;;;;;5110162;27;20475;-76
2023/04/16 01:35:56;;;;;;;2.50;0.85;;;8.20;99.90;;;;;;5105752;28;20532;-74
2023/04/16 01:38:23;;;;;;;0.85;0.85;;;8.10;99.90;;;;;;5110435;27;20823;-77
2023/04/16 01:40:56;;;;;;;4.40;1.38;;;8.10;1.00;;;;;;5102248;27;20511;-75
2023/04/16 01:43:22;;;;;;;0.53;0.50;;;8.00;1.00;;;;;;5126425;27;20426;-74
2023/04/16 01:45:49;;;;;;;0.93;0.93;;;8.00;1.00;;;;;;5105634;27;20433;-75
2023/04/16 01:48:16;;;;;;;0.88;0.88;;;8.00;99.90;;;;;;5097645;28;20426;-75
2023/04/16 01:50:44;;;;;;;1.25;1.20;;;8.00;99.90;;;;;;5104797;27;20433;-74
2023/04/16 01:53:10;;;;;;;1.83;1.00;;;8.00;1.00;;;;;;5110635;27;20424;-75
2023/04/16 01:55:37;;;;;;;1.33;1.23;;;8.00;1.00;;;;;;5101892;28;20436;-74
2023/04/16 01:58:06;;;;;;;1.00;1.00;;;8.00;1.00;;;;;;5102738;28;20514;-75
2023/04/16 02:00:32;;;;;;;1.13;0.80;;;8.00;1.00;;;;;;5107219;27;20420;-74
2023/04/16 02:03:07;;;;;;;2.50;0.70;;;8.00;1.00;;;;;;5122419;27;20426;-74
2023/04/16 02:05:36;;;;;;;1.45;1.35;;;8.00;99.90;;;;;;5112597;27;20853;-74
2023/04/16 02:08:03;;;;;;;1.40;1.10;;;8.00;1.00;;;;;;5110280;27;20422;-75
2023/04/16 02:10:30;;;;;;;1.15;1.13;;;8.00;1.00;;;;;;5124519;28;20423;-74
2023/04/16 02:12:57;;;;;;;2.38;1.55;;;8.00;1.00;;;;;;5095691;27;20417;-74
2023/04/16 02:15:24;;;;;;;3.17;1.77;;;8.00;1.00;;;;;;5097463;28;20487;-74
2023/04/16 02:17:55;;;;;;;1.75;1.38;;;8.10;1.00;;;;;;5101306;28;20416;-75
2023/04/16 02:20:22;;;;;;;1.00;0.50;;;8.10;1.00;;;;;;5110808;28;20508;-76
2023/04/16 02:22:49;;;;;;;0.95;0.95;;;8.10;99.90;;;;;;5117019;27;20974;-76
2023/04/16 02:25:16;;;;;;;1.08;1.00;;;8.10;99.90;;;;;;5109682;28;20427;-76
2023/04/16 02:27:43;;;;;;;0.93;0.93;;;8.20;99.90;;;;;;5107275;28;20473;-75
2023/04/16 02:30:10;;;;;;;0.80;0.80;;;8.20;99.90;;;;;;5106246;28;20424;-76
2023/04/16 02:32:39;;;;;;;1.10;1.00;;;8.20;99.90;;;;;;5127464;28;20479;-76
2023/04/16 02:35:08;;;;;;;0.98;0.98;;;8.20;99.60;;;;;;5092960;28;20434;-75
2023/04/16 02:37:35;;;;;;;1.20;1.20;;;8.20;99.90;;;;;;5106013;27;21091;-76
2023/04/16 02:40:02;;;;;;;1.10;1.00;;;8.20;45.20;;;;;;5106021;28;20531;-76
2023/04/16 02:42:29;;;;;;;1.20;1.00;;;8.10;68.50;;;;;;5100526;28;20508;-77
2023/04/16 02:44:59;;;;;;;1.00;1.00;;;8.20;99.90;;;;;;5106785;28;20426;-76
2023/04/16 02:47:25;;;;;;;0.90;0.90;;;8.10;99.90;;;;;;5091883;28;20426;-76
2023/04/16 02:49:52;;;;;;;1.05;1.00;;;8.20;99.90;;;;;;5103448;28;20456;-75
2023/04/16 02:52:21;;;;;;;2.55;1.45;;;8.20;99.90;;;;;;5117023;28;20426;-75
2023/04/16 02:54:48;;;;;;;1.63;0.97;;;8.20;99.90;;;;;;5113632;28;20789;-75
2023/04/16 02:57:15;;;;;;;1.08;1.08;;;8.20;99.90;;;;;;5112737;28;20436;-75
2023/04/16 02:59:42;;;;;;;3.40;1.10;;;8.20;99.90;;;;;;5122523;27;20451;-75
2023/04/16 03:02:08;;;;;;;1.60;1.08;;;8.20;99.90;;;;;;5095642;28;20478;-75
2023/04/16 03:04:35;;;;;;;1.92;1.15;;;8.20;74.10;;;;;;5122263;27;21050;-75
2023/04/16 03:07:02;;;;;;;1.30;1.17;;;8.20;1.00;;;;;;5115164;27;20426;-76
2023/04/16 03:09:28;;;;;;;1.00;1.00;;;8.20;1.00;;;;;;5119438;27;20424;-76
2023/04/16 03:11:55;;;;;;;1.95;1.00;;;8.20;1.00;;;;;;5118264;27;20502;-78
2023/04/16 03:14:22;;;;;;;1.45;1.38;;;8.20;1.00;;;;;;5113468;28;20434;-77
2023/04/16 03:16:49;;;;;;;1.40;1.33;;;8.30;1.00;;;;;;5110016;27;20834;-77
2023/04/16 03:19:16;;;;;;;1.40;1.30;;;8.20;1.00;;;;;;5133207;27;20422;-76
2023/04/16 03:21:42;;;;;;;0.90;0.90;;;8.30;1.00;;;;;;5121900;27;20428;-77
2023/04/16 03:24:09;;;;;;;1.48;1.38;;;8.20;1.00;;;;;;5113129;27;20474;-76
2023/04/16 03:26:36;;;;;;;1.75;1.38;;;8.20;1.00;;;;;;5131709;27;20415;-75
2023/04/16 03:29:03;;;;;;;1.42;1.33;;;8.30;87.10;;;;;;5132893;27;20435;-75
2023/04/16 03:31:30;;;;;;;3.13;1.77;;;8.20;99.90;;;;;;5118663;27;21295;-75
2023/04/16 03:33:57;;;;;;;2.58;1.35;;;8.30;99.90;;;;;;5110446;27;20420;-75
2023/04/16 03:36:25;;;;;;;1.27;1.17;;;8.20;99.90;;;;;;5099830;27;20419;-76
2023/04/16 03:38:52;;;;;;;2.00;1.67;;;8.30;99.90;;;;;;5110721;27;20422;-75
2023/04/16 03:41:19;;;;;;;1.95;1.70;;;8.20;99.90;;;;;;5131552;27;20505;-75
2023/04/16 03:43:46;;;;;;;4.80;1.10;;;8.10;99.90;;;;;;5094465;28;20792;-75
2023/04/16 03:46:13;;;;;;;1.50;1.40;;;8.10;1.00;;;;;;5092503;28;20425;-75
2023/04/16 03:48:39;;;;;;;3.17;1.27;;;8.00;1.00;;;;;;5105888;27;20426;-75
2023/04/16 03:51:06;;;;;;;1.48;1.38;;;8.00;99.90;;;;;;5113939;27;21024;-74
2023/04/16 03:53:33;;;;;;;1.60;1.50;;;8.00;99.90;;;;;;5095501;28;20832;-75
2023/04/16 03:56:02;;;;;;;2.20;1.25;;;8.00;99.90;;;;;;5111872;27;20432;-75
2023/04/16 03:58:30;;;;;;;1.67;0.88;;;8.00;99.90;;;;;;5105653;28;20432;-75
2023/04/16 04:00:56;;;;;;;2.22;1.65;;;8.10;99.90;;;;;;5095487;27;20442;-75
2023/04/16 04:03:24;;;;;;;1.42;1.33;;;8.20;99.90;;;;;;5112350;28;20435;-75
2023/04/16 04:05:52;;;;;;;1.60;1.50;;;8.20;1.00;;;;;;5103907;27;20455;-75
2023/04/16 04:08:19;;;;;;;1.70;1.20;;;8.30;99.90;;;;;;5107416;27;20461;-76
2023/04/16 04:10:46;;;;;;;1.20;1.10;;;8.30;1.00;;;;;;5121193;27;20486;-75
2023/04/16 04:13:13;;;;;;;1.40;1.30;;;8.30;1.00;;;;;;5097157;28;20915;-75
2023/04/16 04:15:43;;;;;;;1.73;1.07;;;8.30;47.10;;;;;;5093782;28;20447;-75
2023/04/16 04:18:10;;;;;;;2.25;1.60;;;8.30;1.00;;;;;;5110781;27;20575;-76
2023/04/16 04:20:40;;;;;;;1.43;0.73;;;8.30;1.00;;;;;;5092945;28;20477;-75
2023/04/16 04:23:08;;;;;;;1.33;1.13;;;8.30;1.00;;;;;;5107215;27;20468;-75
2023/04/16 04:25:35;;;;;;;1.52;1.15;;;8.20;1.00;;;;;;5109241;28;20549;-75
2023/04/16 04:28:01;;;;;;;1.47;1.33;;;8.30;1.00;;;;;;5112050;28;20424;-75
2023/04/16 04:30:28;;;;;;;1.25;1.17;;;8.30;1.00;;;;;;5116565;27;20425;-75
2023/04/16 04:32:55;;;;;;;1.80;1.10;;;8.30;1.00;;;;;;5112857;27;20420;-75
2023/04/16 04:35:21;;;;;;;1.70;1.60;;;8.30;1.00;;;;;;5101717;28;21410;-75
2023/04/16 04:37:48;;;;;;;1.58;1.48;;;8.30;99.90;;;;;;5111604;27;20438;-75
2023/04/16 04:40:15;;;;;;;1.02;0.85;;;8.30;99.90;;;;;;5126084;27;20469;-75
2023/04/16 04:42:42;;;;;;;2.28;1.90;;;8.40;15.20;;;;;;5091818;28;20518;-75
2023/04/16 04:45:10;;;;;;;1.08;0.98;;;8.40;1.00;;;;;;5115763;27;20516;-75
2023/04/16 04:47:37;;;;;;;1.20;1.20;;;8.40;1.00;;;;;;5113936;27;20445;-75
2023/04/16 04:50:04;;;;;;;0.80;0.80;;;8.40;99.90;;;;;;5098066;27;20425;-75
2023/04/16 04:52:31;;;;;;;1.43;1.30;;;8.40;99.90;;;;;;5098940;27;20420;-75
2023/04/16 04:54:58;;;;;;;1.17;1.13;;;8.30;99.90;;;;;;5101599;27;20430;-75
2023/04/16 04:57:24;;;;;;;1.85;1.17;;;8.40;99.90;;;;;;5091224;28;20986;-75
2023/04/16 04:59:51;;;;;;;1.50;0.90;;;8.40;99.90;;;;;;5096329;28;20517;-75
2023/04/16 05:02:18;;;;;;;0.95;0.95;;;8.50;99.90;;;;;;5093941;28;20922;-75
2023/04/16 05:04:45;;;;;;;1.93;1.77;;;8.50;99.90;;;;;;5098343;27;20606;-75
2023/04/16 05:07:11;;;;;;;1.05;1.05;;;8.50;99.90;;;;;;5122371;27;20422;-75
2023/04/16 05:09:38;;;;;;;1.45;1.35;;;8.50;99.90;;;;;;5108033;27;20457;-75
2023/04/16 05:12:05;;;;;;;0.90;0.90;;;8.50;99.90;;;;;;5101037;27;20448;-75
2023/04/16 05:14:32;;;;;;;1.40;1.08;;;8.60;1.00;;;;;;5104613;27;20448;-75
2023/04/16 05:16:59;;;;;;;1.95;1.10;;;8.60;1.00;;;;;;5115250;27;20912;-75
2023/04/16 05:19:26;;;;;;;1.48;1.38;;;8.60;2.00;;;;;;5107866;27;20428;-77
2023/04/16 05:21:58;;;;;;;1.88;0.70;;;8.60;60.70;;;;;;5104653;27;20850;-76
2023/04/16 05:24:25;;;;;;;1.58;1.27;;;8.70;1.00;;;;;;5091741;27;21133;-75
2023/04/16 05:26:51;;;;;;;1.88;1.02;;;8.70;99.90;;;;;;5094937;27;20422;-75
2023/04/16 05:29:18;;;;;;;1.00;0.90;;;8.70;99.90;;;;;;5095980;27;20452;-76
2023/04/16 05:31:45;;;;;;;1.48;1.38;;;8.70;99.90;;;;;;5098618;27;20440;-75
2023/04/16 05:34:12;;;;;;;1.40;1.30;;;8.60;99.90;;;;;;5088251;27;20427;-78
2023/04/16 05:36:39;;;;;;;2.30;1.60;;;8.60;99.90;;;;;;5124317;27;20788;-74
2023/04/16 05:39:09;;;;;;;2.35;1.52;;;8.60;99.90;;;;;;5098445;27;20428;-74
2023/04/16 05:41:36;;;;;;;1.55;1.45;;;8.60;99.90;;;;;;5107594;27;20625;-74
2023/04/16 05:44:03;;;;;;;1.67;1.52;;;8.60;99.90;;;;;;5100107;27;20433;-76
2023/04/16 05:46:31;;;;;;;0.80;0.80;;;8.70;99.90;;;;;;5108125;27;20902;-74
2023/04/16 05:49:00;;;;;;;2.13;1.40;;;8.70;99.90;;;;;;5091815;27;20429;-75
2023/04/16 05:51:27;;;;;;;0.93;0.82;;;8.70;99.90;;;;;;5093541;28;20485;-74
2023/04/16 05:53:55;;;;;;;1.73;1.27;;;8.70;99.90;;;;;;5097757;27;20831;-74
2023/04/16 05:56:22;;;;;;;4.03;1.83;;;8.80;99.90;;;;;;5108416;27;20432;-73
2023/04/16 05:58:48;;;;;;;1.63;1.08;;;8.70;99.90;;;;;;5107552;27;20510;-77
2023/04/16 06:01:15;;;;;;;1.15;1.10;;;8.80;99.90;;;;;;5089896;28;20534;-73
2023/04/16 06:03:43;;;;;;;1.63;1.25;;;8.80;99.90;;;;;;5094498;28;20459;-75
2023/04/16 06:06:10;;;;;;;0.90;0.90;;;8.90;99.90;;;;;;5100189;27;20720;-73
2023/04/16 06:08:37;;;;;;;1.77;1.48;;;8.90;99.90;;;;;;5115723;27;20435;-74
2023/04/16 06:11:03;;;;;;;2.00;1.88;;;8.90;99.90;;;;;;5096968;27;20440;-74
2023/04/16 06:13:30;;;;;;;1.27;1.13;;;8.90;99.90;;;;;;5095070;28;20784;-74
2023/04/16 06:15:57;;;;;;;2.35;1.15;;;8.90;99.90;;;;;;5110782;27;20425;-73
2023/04/16 06:18:24;;;;;;;1.73;1.63;;;8.90;99.90;;;;;;5096528;28;20428;-73
2023/04/16 06:20:50;;;;;;;2.00;1.30;;;8.90;99.90;;;;;;5101609;28;20524;-74
2023/04/16 06:23:17;;;;;;;2.28;1.48;;;8.90;99.90;;;;;;5097643;28;20419;-73
2023/04/16 06:25:44;;;;;;;1.35;1.30;;;8.90;99.90;;;;;;5111461;28;20422;-73
2023/04/16 06:28:11;;;;;;;2.20;1.37;;;9.00;99.90;;;;;;5116038;27;20485;-74
2023/04/16 06:30:38;;;;;;;1.77;1.67;;;9.10;99.90;;;;;;5089710;28;20477;-75
2023/04/16 06:33:05;;;;;;;1.33;1.30;;;9.20;99.90;;;;;;5101142;27;20424;-76
2023/04/16 06:35:32;;;;;;;1.13;1.10;;;9.40;99.90;;;;;;5103875;27;20480;-74
2023/04/16 06:38:01;;;;;;;1.33;1.33;;;9.50;99.90;;;;;;5112621;27;20895;-74
2023/04/16 06:40:27;;;;;;;1.38;1.27;;;9.70;99.90;;;;;;5112681;27;20432;-74
2023/04/16 06:42:55;;;;;;;1.63;1.53;;;9.90;99.90;;;;;;5089441;27;20935;-73
2023/04/16 06:45:21;;;;;;;2.83;1.60;;;9.90;99.90;;;;;;5100125;28;20931;-74
2023/04/16 06:47:49;;;;;;;4.70;1.60;;;9.90;99.90;;;;;;5094710;27;20505;-74
2023/04/16 06:50:16;;;;;;;1.95;1.75;;;10.00;99.90;;;;;;5115686;27;20432;-73
2023/04/16 06:52:43;;;;;;;2.67;1.90;;;10.00;99.90;;;;;;5110771;27;20429;-76
2023/04/16 06:55:15;;;;;;;1.27;1.17;;;10.00;99.90;;;;;;5100499;27;20436;-74
2023/04/16 06:57:42;;;;;;;1.45;1.35;;;9.90;99.90;;;;;;5108509;27;20452;-75
2023/04/16 07:00:09;;;;;;;2.63;1.75;;;9.60;99.90;;;;;;5101390;27;20423;-75
2023/04/16 07:02:36;;;;;;;1.50;1.13;;;9.30;99.90;;;;;;5113176;27;20481;-74
2023/04/16 07:05:04;;;;;;;1.48;1.38;;;8.90;99.90;;;;;;5109519;27;20458;-74
2023/04/16 07:07:31;;;;;;;2.50;1.58;;;8.60;99.90;;;;;;5108102;27;20423;-74
2023/04/16 07:09:58;;;;;;;1.50;1.40;;;8.50;99.90;;;;;;5103667;27;20429;-74
2023/04/16 07:12:28;;;;;;;2.13;2.00;;;8.30;99.90;;;;;;5098900;27;20426;-74
2023/04/16 07:14:55;;;;;;;2.15;1.85;;;8.10;99.90;;;;;;5106612;27;20434;-73
2023/04/16 07:17:22;;;;;;;3.05;2.20;;;8.10;99.90;;;;;;5101335;27;20437;-75
2023/04/16 07:19:50;;;;;;;3.87;2.33;;;8.00;1.00;;;;;;5099484;27;20422;-72
2023/04/16 07:22:16;;;;;;;4.83;2.37;;;8.00;13.20;;;;;;5101873;27;20982;-71
2023/04/16 07:24:44;;;;;;;5.75;2.53;;;7.90;99.90;;;;;;5102627;27;20429;-71
2023/04/16 07:27:11;;;;;;;1.73;1.40;;;7.90;99.90;;;;;;5103555;27;20475;-70
2023/04/16 07:29:38;;;;;;;1.83;1.73;;;7.80;99.90;;;;;;5103237;27;21121;-71
2023/04/16 07:32:06;;;;;;;2.10;1.92;;;7.90;99.90;;;;;;5096011;27;20406;-71
2023/04/16 07:34:35;;;;;;;1.80;1.52;;;7.90;1.00;;;;;;5101140;27;20429;-72
2023/04/16 07:37:02;;;;;;;1.90;0.77;;;7.90;1.00;;;;;;5087849;27;20795;-72
2023/04/16 07:39:31;;;;;;;2.90;1.63;;;7.90;1.00;;;;;;5100094;27;21933;-73
2023/04/16 07:42:00;;;;;;;1.52;1.42;;;7.90;1.00;;;;;;5110969;27;20424;-71
2023/04/16 07:44:28;;;;;;;1.85;1.75;;;7.90;1.00;;;;;;5113703;27;20513;-72
2023/04/16 07:46:55;;;;;;;1.53;1.20;;;7.90;1.00;;;;;;5100977;27;20497;-72
2023/04/16 07:49:21;;;;;;;1.08;1.08;;;7.90;1.00;;;;;;5095411;27;20434;-72
2023/04/16 07:51:57;;;;;;;3.22;1.30;;;7.90;1.00;;;;;;5096640;27;20426;-72
2023/04/16 07:54:24;;;;;;;2.03;1.17;;;8.00;1.00;;;;;;5109813;27;20427;-72
2023/04/16 07:56:52;;;;;;;1.15;1.15;;;8.00;1.00;;;;;;5104925;27;20419;-72
2023/04/16 07:59:22;;;;;;;1.27;1.17;;;8.00;1.00;;;;;;5118592;27;20427;-72
2023/04/16 08:01:52;;;;;;;0.65;0.65;;;8.10;1.00;;;;;;5102253;27;20507;-72
2023/04/16 08:04:23;;;;;;;1.55;1.35;;;8.00;1.00;;;;;;5101645;27;20514;-72
2023/04/16 08:06:51;;;;;;;2.28;1.10;;;8.10;1.00;;;;;;5091470;27;20423;-73
2023/04/16 08:09:20;;;;;;;1.77;1.67;;;8.10;1.00;;;;;;5100127;27;20952;-72
2023/04/16 08:11:48;;;;;;;1.83;1.45;;;8.10;1.00;;;;;;5108787;27;20426;-72
2023/04/16 08:14:16;;;;;;;1.15;1.10;;;8.10;1.00;;;;;;5102047;27;20446;-72
2023/04/16 08:16:43;;;;;;;1.00;0.97;;;8.10;1.00;;;;;;5098393;27;20433;-71
2023/04/16 08:19:10;;;;;;;1.25;1.15;;;8.20;1.00;;;;;;5102262;27;20426;-72
2023/04/16 08:21:37;;;;;;;1.55;1.45;;;8.30;1.00;;;;;;5105751;27;20491;-71
2023/04/16 08:24:04;;;;;;;3.00;1.38;;;8.30;1.00;;;;;;5127627;27;20422;-72
2023/04/16 08:26:31;;;;;;;1.83;0.70;;;8.30;1.00;;;;;;5105079;27;20473;-71
2023/04/16 08:28:58;;;;;;;1.45;0.85;;;8.30;1.00;;;;;;5098433;28;20440;-71
2023/04/16 08:31:27;;;;;;;1.65;1.10;;;8.30;1.00;;;;;;5124995;27;20426;-71
2023/04/16 08:33:54;;;;;;;1.60;1.27;;;8.30;1.00;;;;;;5100361;27;20443;-70
2023/04/16 08:36:23;;;;;;;1.70;0.73;;;8.30;1.00;;;;;;5102476;27;20426;-67
2023/04/16 08:38:51;;;;;;;1.70;1.35;;;8.30;1.00;;;;;;5098182;28;20578;-68
2023/04/16 08:41:20;;;;;;;1.10;1.10;;;8.40;1.00;;;;;;5119768;27;21166;-68
2023/04/16 08:43:49;;;;;;;0.73;0.73;;;8.50;1.00;;;;;;5098266;28;20424;-68
2023/04/16 08:46:16;;;;;;;2.10;1.10;;;8.50;1.00;;;;;;5092676;27;20943;-68
2023/04/16 08:48:47;;;;;;;3.63;1.17;;;8.50;1.00;;;;;;5104923;28;20568;-67
2023/04/16 08:51:16;;;;;;;1.35;1.33;;;8.60;1.00;;;;;;5107099;27;20507;-67
2023/04/16 08:54:02;;;;;;;0.90;0.90;;;8.60;1.00;;;;;;5104932;27;21203;-68
2023/04/16 08:56:30;;;;;;;1.25;1.25;;;8.60;1.00;;;;;;5097305;27;20503;-67
2023/04/16 08:58:57;;;;;;;1.50;1.40;;;8.60;1.00;;;;;;5098073;27;20429;-67
2023/04/16 09:01:25;;;;;;;1.48;1.38;;;8.70;1.00;;;;;;5103673;27;20914;-67
2023/04/16 09:03:53;;;;;;;1.80;1.17;;;8.80;1.00;;;;;;5118711;27;20912;-67
2023/04/16 09:06:20;;;;;;;5.00;2.47;;;8.80;1.00;;;;;;5110946;27;20432;-67
2023/04/16 09:08:48;;;;;;;4.35;2.10;;;8.90;99.90;;;;;;5100034;27;20437;-67
2023/04/16 09:11:17;;;;;;;2.15;1.95;;;9.00;99.90;;;;;;5115569;27;20422;-67
2023/04/16 09:13:45;;;;;;;1.02;0.98;;;9.10;99.90;;;;;;5105230;27;20966;-67
2023/04/16 09:16:14;;;;;;;3.27;1.97;;;9.20;99.90;;;;;;5088163;27;20900;-67
2023/04/16 09:18:41;;;;;;;1.50;1.40;;;9.20;99.90;;;;;;5102687;27;20429;-69
2023/04/16 09:21:11;;;;;;;1.65;1.35;;;9.20;99.90;;;;;;5101840;27;20511;-69
2023/04/16 09:23:38;;;;;;;1.17;1.07;;;9.30;99.90;;;;;;5098942;27;20433;-69
2023/04/16 09:26:05;;;;;;;1.38;1.27;;;9.40;99.90;;;;;;5089085;27;20793;-69
2023/04/16 09:28:39;;;;;;;1.83;1.55;;;9.40;99.90;;;;;;5101943;28;20799;-69
2023/04/16 09:31:12;;;;;;;2.13;1.60;;;9.50;99.90;;;;;;5088729;27;20432;-69
2023/04/16 09:33:39;;;;;;;2.28;1.73;;;9.60;99.90;;;;;;5093263;28;20421;-69
2023/04/16 09:36:06;;;;;;;6.13;2.50;;;9.70;99.90;;;;;;5100628;27;20438;-68
2023/04/16 09:38:50;;;;;;;2.88;2.40;;;9.70;99.90;;;;;;5091037;28;20438;-69
2023/04/16 09:41:17;;;;;;;2.58;2.22;;;9.80;99.90;;;;;;5091625;28;20438;-70
2023/04/16 09:43:58;;;;;;;3.83;2.90;;;9.90;99.90;;;;;;5124396;27;20479;-70
2023/04/16 09:46:30;;;;;;;3.03;2.70;;;9.90;99.90;;;;;;5090826;27;20438;-71
2023/04/16 09:49:15;;;;;;;3.97;2.70;;;9.90;99.90;;;;;;5101179;27;20420;-69
2023/04/16 09:51:48;;;;;;;5.07;2.22;;;10.00;99.90;;;;;;5111236;27;20455;-69
2023/04/16 09:54:15;;;;;;;2.87;2.07;;;10.10;99.90;;;;;;5093408;28;20460;-70
2023/04/16 09:56:43;;;;;;;2.58;1.75;;;10.10;99.90;;;;;;5102594;27;20930;-69
2023/04/16 09:59:20;;;;;;;1.58;1.45;;;10.20;99.90;;;;;;5090532;28;20541;-68
2023/04/16 10:01:52;;;;;;;3.30;1.55;;;10.20;99.90;;;;;;5096806;27;20430;-69
2023/04/16 10:04:45;;;;;;;1.77;1.67;;;10.10;99.90;;;;;;5096056;27;20438;-69
2023/04/16 10:07:12;;;;;;;1.90;1.80;;;10.20;99.90;;;;;;5087943;28;20477;-69
2023/04/16 10:09:40;;;;;;;5.57;1.92;;;10.20;99.90;;;;;;5096846;27;20428;-68
2023/04/16 10:12:07;;;;;;;1.77;1.67;;;10.30;99.90;;;;;;5105690;28;20422;-68
2023/04/16 10:14:34;;;;;;;2.70;1.73;;;10.30;99.90;;;;;;5097281;27;20430;-68
2023/04/16 10:17:02;;;;;;;2.58;1.63;;;10.40;99.90;;;;;;5113315;28;20516;-68
2023/04/16 10:19:33;;;;;;;2.55;2.25;;;10.50;99.90;;;;;;5106395;28;20440;-69
2023/04/16 10:22:02;;;;;;;4.43;2.38;;;10.50;99.90;;;;;;5095007;28;20441;-67
2023/04/16 10:24:30;;;;;;;2.38;1.98;;;10.40;99.90;;;;;;5092842;28;20432;-68
2023/04/16 10:26:57;;;;;;;2.50;1.85;;;10.40;99.90;;;;;;5098150;28;20511;-68
2023/04/16 10:29:30;;;;;;;10.77;2.33;;;10.50;99.90;;;;;;5110750;27;20503;-68
2023/04/16 10:31:57;;;;;;;2.80;1.73;;;10.40;99.90;;;;;;5101108;28;20485;-68
2023/04/16 10:34:25;;;;;;;2.03;1.83;;;10.40;99.90;;;;;;5107335;28;21063;-68
2023/04/16 10:36:53;;;;;;;2.85;1.98;;;10.40;99.90;;;;;;5108649;27;20424;-68
2023/04/16 10:39:26;;;;;;;5.38;1.58;;;10.40;99.90;;;;;;5110462;28;20505;-67
2023/04/16 10:42:09;;;;;;;2.50;1.90;;;10.40;99.90;;;;;;5102063;27;20434;-68
2023/04/16 10:44:39;;;;;;;5.18;3.00;;;10.40;99.90;;;;;;5087597;28;20430;-68
2023/04/16 10:47:11;;;;;;;2.67;1.83;;;10.20;99.90;;;;;;5100041;27;20435;-68
2023/04/16 10:49:38;;;;;;;4.10;2.20;;;10.10;99.90;;;;;;5099442;28;20810;-67
2023/04/16 10:52:17;;;;;;;4.78;2.15;;;10.00;99.90;;;;;;5105597;28;20528;-67
2023/04/16 10:54:46;;;;;;;9.52;2.22;;;10.00;99.90;;;;;;5097143;28;20426;-68
2023/04/16 10:57:20;;;;;;;2.65;1.92;;;10.10;99.90;;;;;;5093709;28;20440;-68
2023/04/16 10:59:48;;;;;;;2.45;2.25;;;10.20;99.90;;;;;;5099772;28;20473;-68
2023/04/16 11:02:18;;;;;;;2.47;2.28;;;10.20;99.90;;;;;;5093797;28;20456;-67
2023/04/16 11:04:48;;;;;;;2.50;2.00;;;10.20;99.90;;;;;;5107182;28;20855;-68
2023/04/16 11:07:20;;;;;;;2.50;2.30;;;10.20;99.90;;;;;;5102847;28;20418;-69
2023/04/16 11:09:58;;;;;;;4.18;2.30;;;10.40;99.90;;;;;;5106829;27;20436;-67
2023/04/16 11:12:28;;;;;;;4.28;1.98;;;10.40;99.90;;;;;;5109632;27;20418;-67
2023/04/16 11:15:12;;;;;;;5.40;2.87;;;10.50;99.90;;;;;;5100145;27;20510;-68
2023/04/16 11:17:50;;;;;;;2.40;2.05;;;10.60;99.90;;;;;;5095807;28;20426;-68
2023/04/16 11:20:25;;;;;;;3.03;2.03;;;10.60;99.90;;;;;;5102073;27;20436;-67
2023/04/16 11:22:56;;;;;;;2.38;2.03;;;10.60;99.90;;;;;;5107947;27;20414;-67
2023/04/16 11:25:33;;;;;;;3.33;2.45;;;10.50;99.90;;;;;;5106677;27;20428;-68
2023/04/16 11:28:01;;;;;;;2.65;2.45;;;10.50;99.90;;;;;;5098826;27;20456;-68
2023/04/16 11:30:36;;;;;;;2.67;1.92;;;10.50;99.90;;;;;;5095396;27;20437;-67
2023/04/16 11:33:10;;;;;;;3.13;1.98;;;10.50;99.90;;;;;;5097284;27;20455;-68
2023/04/16 11:35:38;;;;;;;4.72;2.50;;;10.50;99.90;;;;;;5090672;27;20846;-68
2023/04/16 11:38:06;;;;;;;3.72;2.50;;;10.50;99.90;;;;;;5091898;27;20438;-67
2023/04/16 11:40:35;;;;;;;5.40;2.97;;;10.60;99.90;;;;;;5121119;27;20536;-67
2023/04/16 11:43:04;;;;;;;2.75;2.30;;;10.80;99.90;;;;;;5116373;27;20440;-67
2023/04/16 11:45:30;;;;;;;2.93;2.17;;;10.90;99.90;;;;;;5103818;27;20426;-67
2023/04/16 11:47:57;;;;;;;3.97;2.63;;;11.00;99.90;;;;;;5099327;28;20482;-67
2023/04/16 11:50:28;;;;;;;3.10;2.78;;;11.10;99.90;;;;;;5099930;27;20448;-68
2023/04/16 11:53:03;;;;;;;6.30;2.72;;;11.10;99.90;;;;;;5096765;27;20422;-67
2023/04/16 11:55:30;;;;;;;3.45;2.75;;;11.20;99.90;;;;;;5092517;27;20866;-67
2023/04/16 11:58:11;;;;;;;4.78;2.97;;;11.20;99.90;;;;;;5102107;27;20854;-66
2023/04/16 12:00:37;;;;;;;3.42;2.88;;;11.30;99.90;;;;;;5099712;27;20453;-69
2023/04/16 12:03:04;;;;;;;3.55;3.10;;;11.40;99.90;;;;;;5108052;27;20426;-72
2023/04/16 12:05:37;;;;;;;3.92;3.25;;;11.50;99.90;;;;;;5093673;27;20428;-67
2023/04/16 12:08:09;;;;;;;3.15;2.40;;;11.70;99.90;;;;;;5101527;27;20428;-69
2023/04/16 12:10:51;;;;;;;6.97;2.97;;;11.80;99.90;;;;;;5108740;27;20536;-73
2023/04/16 12:13:18;;;;;;;5.93;2.50;;;12.00;99.90;;;;;;5107109;27;20528;-72
2023/04/16 12:15:53;;;;;;;2.77;2.53;;;12.20;99.90;;;;;;5114573;27;20499;-76
2023/04/16 12:18:25;;;;;;;4.35;2.97;;;12.20;99.90;;;;;;5107040;27;20437;-71
2023/04/16 12:20:52;;;;;;;2.53;2.33;;;12.20;99.90;;;;;;5111588;27;20426;-69
2023/04/16 12:23:32;;;;;;;4.47;3.03;;;12.00;99.90;;;;;;5108084;27;20457;-67
2023/04/16 12:26:08;;;;;;;4.70;3.23;;;11.90;99.90;;;;;;5115885;27;20514;-71
2023/04/16 12:28:39;;;;;;;4.97;3.03;;;11.80;99.90;;;;;;5112384;27;21245;-67
2023/04/16 12:31:07;;;;;;;4.07;3.00;;;11.70;99.90;;;;;;5110219;27;20455;-71
2023/04/16 12:33:34;;;;;;;6.47;2.87;;;11.70;99.90;;;;;;5094047;27;20430;-67
2023/04/16 12:36:15;;;;;;;2.60;2.20;;;11.60;99.90;;;;;;5095853;28;20432;-67
2023/04/16 12:38:42;;;;;;;3.67;3.08;;;11.60;99.90;;;;;;5096833;27;20448;-66
2023/04/16 12:41:08;;;;;;;4.85;2.92;;;11.60;99.90;;;;;;5109704;27;20452;-67
2023/04/16 12:43:37;;;;;;;4.53;2.85;;;11.60;99.90;;;;;;5110673;27;20430;-67
2023/04/16 12:46:04;;;;;;;2.65;2.40;;;11.60;99.90;;;;;;5121231;27;20805;-66
2023/04/16 12:48:32;;;;;;;6.20;2.85;;;11.50;99.90;;;;;;5111137;27;20422;-67
2023/04/16 12:50:59;;;;;;;3.60;2.13;;;11.40;99.90;;;;;;5089883;28;20425;-67
2023/04/16 12:53:26;;;;;;;4.32;2.63;;;11.20;99.90;;;;;;5098891;28;20792;-68
2023/04/16 12:55:52;;;;;;;3.40;3.00;;;11.10;99.90;;;;;;5094628;27;20505;-67
2023/04/16 12:58:19;;;;;;;5.85;3.10;;;10.90;99.90;;;;;;5093723;27;20433;-67
2023/04/16 13:00:46;;;;;;;3.90;2.83;;;10.80;99.90;;;;;;5107920;27;20422;-67
2023/04/16 13:03:12;;;;;;;3.95;3.33;;;10.80;99.90;;;;;;5124904;27;20428;-67
2023/04/16 13:05:40;;;;;;;4.13;3.25;;;10.70;99.90;;;;;;5099251;27;20435;-67